Time;durP1;ratioP1;P1;durP2;ratioP2;P2;SDS_P1;SDS_P2;PMS_P1;PMS_P2;Temp;Humidity;BMP_temperature;BMP_pressure;BME280_temperature;BME280_humidity;BME280_pressure;Samples;Min_cycle;Max_cycle;Signal;HPM_P1;HPM_P2
2024/04/16 00:00:38;;;;;;;0.60;0.40;;;5.90;99.20;;;;;;5371704;26;20719;-81
2024/04/16 00:03:07;;;;;;;0.52;0.52;;;5.80;99.20;;;;;;5390623;26;20245;-81
2024/04/16 00:05:33;;;;;;;0.68;0.50;;;5.80;99.50;;;;;;5398386;26;20283;-81
2024/04/16 00:08:02;;;;;;;1.35;0.70;;;5.80;99.70;;;;;;5389477;26;20249;-80
2024/04/16 00:10:28;;;;;;;0.60;0.60;;;5.90;99.90;;;;;;5388004;26;20660;-81
2024/04/16 00:12:57;;;;;;;0.70;0.60;;;5.90;99.40;;;;;;5387201;26;20340;-80
2024/04/16 00:15:26;;;;;;;0.60;0.40;;;5.90;99.60;;;;;;5400440;26;20282;-80
2024/04/16 00:17:55;;;;;;;1.17;0.55;;;5.80;99.60;;;;;;5401296;26;20744;-80
2024/04/16 00:20:21;;;;;;;1.38;0.80;;;5.70;99.40;;;;;;5387573;26;20617;-80
2024/04/16 00:22:50;;;;;;;2.00;1.02;;;5.70;99.90;;;;;;5394255;26;20244;-81
2024/04/16 00:25:16;;;;;;;1.25;0.88;;;5.60;99.20;;;;;;5381049;26;20762;-80
2024/04/16 00:27:45;;;;;;;0.80;0.52;;;5.80;99.60;;;;;;5380754;26;20268;-80
2024/04/16 00:30:11;;;;;;;0.93;0.75;;;5.80;99.80;;;;;;5374137;26;20260;-80
2024/04/16 00:32:43;;;;;;;0.73;0.60;;;5.80;99.10;;;;;;5381777;26;20724;-81
2024/04/16 00:35:09;;;;;;;1.15;0.98;;;5.80;99.20;;;;;;5377152;26;20292;-81
2024/04/16 00:37:38;;;;;;;0.80;0.80;;;5.80;98.80;;;;;;5389726;26;20286;-80
2024/04/16 00:40:05;;;;;;;1.95;0.70;;;5.70;99.10;;;;;;5391559;26;20252;-80
2024/04/16 00:42:34;;;;;;;1.25;0.75;;;5.80;99.20;;;;;;5390855;26;20245;-80
2024/04/16 00:45:00;;;;;;;1.25;0.70;;;5.80;99.30;;;;;;5384684;26;20256;-80
2024/04/16 00:47:29;;;;;;;1.30;0.75;;;5.70;99.40;;;;;;5376815;26;20651;-79
2024/04/16 00:49:58;;;;;;;0.80;0.80;;;5.70;99.70;;;;;;5383337;26;20284;-80
2024/04/16 00:52:27;;;;;;;0.50;0.50;;;5.70;99.70;;;;;;5381469;26;20267;-80
2024/04/16 00:54:53;;;;;;;0.93;0.60;;;5.70;99.70;;;;;;5400135;26;20260;-81
2024/04/16 00:57:23;;;;;;;1.63;0.80;;;5.70;99.90;;;;;;5386800;26;20244;-80
2024/04/16 00:59:51;;;;;;;1.25;0.70;;;5.60;99.10;;;;;;5379517;26;20266;-80
2024/04/16 01:02:21;;;;;;;1.77;0.68;;;5.60;99.50;;;;;;5375019;26;20241;-80
2024/04/16 01:04:48;;;;;;;1.00;0.90;;;5.60;99.30;;;;;;5384062;26;20333;-80
2024/04/16 01:07:20;;;;;;;1.00;0.50;;;5.60;99.30;;;;;;5376377;26;20641;-80
2024/04/16 01:09:46;;;;;;;0.60;0.50;;;5.60;99.90;;;;;;5383568;26;20351;-80
2024/04/16 01:12:15;;;;;;;0.95;0.70;;;5.60;99.90;;;;;;5405971;26;20721;-80
2024/04/16 01:14:42;;;;;;;4.25;1.58;;;5.70;99.90;;;;;;5387042;26;20248;-80
2024/04/16 01:17:12;;;;;;;2.05;0.75;;;5.60;99.90;;;;;;5383589;26;20345;-80
2024/04/16 01:19:39;;;;;;;2.30;0.95;;;5.50;99.70;;;;;;5381261;26;20319;-82
2024/04/16 01:22:09;;;;;;;1.58;0.75;;;5.50;99.90;;;;;;5384031;26;20282;-80
2024/04/16 01:24:42;;;;;;;0.60;0.57;;;5.60;99.90;;;;;;5379949;26;20245;-81
2024/04/16 01:27:10;;;;;;;1.42;0.80;;;5.60;99.90;;;;;;5382332;26;20249;-81
2024/04/16 01:29:40;;;;;;;1.25;0.77;;;5.60;99.50;;;;;;5400207;26;20322;-81
2024/04/16 01:32:07;;;;;;;1.52;0.70;;;5.60;99.70;;;;;;5376460;26;20245;-81
2024/04/16 01:34:37;;;;;;;1.48;0.50;;;5.70;99.70;;;;;;5402461;26;20689;-81
2024/04/16 01:37:05;;;;;;;2.05;1.05;;;5.70;99.30;;;;;;5381851;26;20610;-82
2024/04/16 01:39:35;;;;;;;1.40;0.82;;;5.60;99.30;;;;;;5390095;26;20247;-79
2024/04/16 01:42:05;;;;;;;1.35;0.68;;;5.80;99.70;;;;;;5394679;26;20572;-79
2024/04/16 01:44:35;;;;;;;5.75;1.20;;;5.60;99.50;;;;;;5395600;26;20247;-80
2024/04/16 01:47:03;;;;;;;0.70;0.70;;;5.70;99.40;;;;;;5399737;26;20244;-80
2024/04/16 01:49:33;;;;;;;2.90;0.85;;;5.60;99.10;;;;;;5380084;26;20280;-79
2024/04/16 01:52:00;;;;;;;1.13;1.00;;;5.50;99.00;;;;;;5386104;26;20240;-79
2024/04/16 01:54:32;;;;;;;5.47;0.85;;;5.40;99.00;;;;;;5387386;26;20244;-79
2024/04/16 01:57:02;;;;;;;1.10;0.80;;;5.30;99.20;;;;;;5383843;26;20791;-81
2024/04/16 01:59:35;;;;;;;1.17;1.08;;;5.30;99.30;;;;;;5379484;26;20244;-80
2024/04/16 02:02:02;;;;;;;1.08;0.93;;;5.20;99.20;;;;;;5390508;26;20358;-80
2024/04/16 02:04:32;;;;;;;3.75;0.95;;;5.20;99.50;;;;;;5375654;26;20332;-81
2024/04/16 02:06:58;;;;;;;1.05;0.77;;;5.10;99.70;;;;;;5376306;26;20248;-79
2024/04/16 02:09:27;;;;;;;2.25;0.90;;;5.20;99.90;;;;;;5376475;26;20325;-79
2024/04/16 02:11:53;;;;;;;0.90;0.90;;;5.30;99.60;;;;;;5392842;26;20282;-79
2024/04/16 02:14:22;;;;;;;4.18;1.02;;;5.20;99.20;;;;;;5377349;26;20288;-81
2024/04/16 02:16:51;;;;;;;3.42;0.85;;;5.20;99.60;;;;;;5404803;26;20256;-82
2024/04/16 02:19:20;;;;;;;7.70;1.10;;;5.30;99.90;;;;;;5381761;26;20247;-80
2024/04/16 02:21:46;;;;;;;1.40;0.73;;;5.20;99.20;;;;;;5390094;26;20598;-79
2024/04/16 02:24:15;;;;;;;2.05;0.80;;;5.20;99.20;;;;;;5385348;26;20277;-79
2024/04/16 02:26:41;;;;;;;1.13;0.85;;;5.30;99.90;;;;;;5365850;26;20243;-79
2024/04/16 02:29:10;;;;;;;1.30;1.20;;;5.40;99.90;;;;;;5382521;26;20292;-79
2024/04/16 02:31:36;;;;;;;2.40;0.88;;;5.30;99.80;;;;;;5411316;26;20249;-79
2024/04/16 02:34:08;;;;;;;1.80;1.08;;;5.40;99.90;;;;;;5384983;26;20302;-79
2024/04/16 02:36:36;;;;;;;3.67;1.40;;;5.30;99.20;;;;;;5379741;26;20299;-79
2024/04/16 02:39:05;;;;;;;1.65;1.10;;;5.30;99.50;;;;;;5378560;26;20744;-79
2024/04/16 02:41:31;;;;;;;1.40;1.02;;;5.20;99.60;;;;;;5387880;26;20249;-79
2024/04/16 02:44:00;;;;;;;1.08;0.95;;;5.20;99.90;;;;;;5387842;26;20274;-81
2024/04/16 02:46:28;;;;;;;1.33;1.23;;;5.40;99.90;;;;;;5406358;26;20289;-79
2024/04/16 02:48:57;;;;;;;3.42;0.95;;;5.30;99.60;;;;;;5385371;26;20241;-79
2024/04/16 02:51:26;;;;;;;1.38;1.00;;;5.40;99.60;;;;;;5400048;26;20610;-79
2024/04/16 02:53:54;;;;;;;1.23;0.93;;;5.50;99.40;;;;;;5392562;26;20240;-80
2024/04/16 02:56:21;;;;;;;0.90;0.85;;;5.30;99.10;;;;;;5378525;26;20244;-80
2024/04/16 02:58:49;;;;;;;1.55;1.23;;;5.40;99.90;;;;;;5377970;26;20239;-80
2024/04/16 03:01:18;;;;;;;1.40;0.85;;;5.40;99.90;;;;;;5400875;26;20814;-79
2024/04/16 03:03:44;;;;;;;1.50;1.20;;;5.40;99.90;;;;;;5376314;26;20290;-79
2024/04/16 03:06:13;;;;;;;1.83;0.95;;;5.30;99.90;;;;;;5396502;26;20305;-80
2024/04/16 03:08:42;;;;;;;6.00;1.20;;;5.20;99.90;;;;;;5386811;26;20309;-80
2024/04/16 03:11:11;;;;;;;1.67;1.02;;;5.20;99.90;;;;;;5385626;26;20242;-80
2024/04/16 03:13:37;;;;;;;3.78;1.15;;;5.00;99.90;;;;;;5378559;26;20279;-80
2024/04/16 03:16:08;;;;;;;1.25;1.15;;;5.10;99.90;;;;;;5394797;26;20295;-78
2024/04/16 03:18:34;;;;;;;1.20;1.00;;;4.90;99.90;;;;;;5385695;26;20252;-79
2024/04/16 03:21:04;;;;;;;5.50;3.95;;;5.00;99.90;;;;;;5388415;26;20283;-79
2024/04/16 03:23:30;;;;;;;2.63;2.42;;;4.90;99.90;;;;;;5383492;26;20282;-79
2024/04/16 03:26:04;;;;;;;1.70;1.60;;;4.80;99.90;;;;;;5401764;26;20264;-78
2024/04/16 03:28:30;;;;;;;1.13;1.02;;;4.90;99.90;;;;;;5389537;26;20264;-78
2024/04/16 03:30:59;;;;;;;2.83;1.15;;;4.90;99.90;;;;;;5393757;26;20283;-78
2024/04/16 03:33:26;;;;;;;1.10;1.00;;;4.90;99.90;;;;;;5390392;26;20278;-78
2024/04/16 03:35:58;;;;;;;1.23;1.13;;;4.80;99.90;;;;;;5387800;26;20244;-79
2024/04/16 03:38:28;;;;;;;1.00;0.90;;;4.90;99.90;;;;;;5403860;26;20795;-78
2024/04/16 03:40:58;;;;;;;3.08;1.38;;;5.00;99.90;;;;;;5386169;26;20242;-81
2024/04/16 03:43:27;;;;;;;1.67;1.08;;;4.90;99.90;;;;;;5379863;26;20247;-79
2024/04/16 03:45:56;;;;;;;5.18;1.40;;;4.90;99.90;;;;;;5401756;26;20268;-80
2024/04/16 03:48:24;;;;;;;1.65;1.10;;;4.90;99.90;;;;;;5390233;26;20749;-79
2024/04/16 03:50:52;;;;;;;3.25;1.20;;;4.80;99.90;;;;;;5386911;26;20245;-80
2024/04/16 03:53:19;;;;;;;3.60;1.65;;;4.80;99.90;;;;;;5382225;26;20247;-78
2024/04/16 03:55:48;;;;;;;2.10;1.48;;;4.90;99.90;;;;;;5386881;26;20251;-79
2024/04/16 03:58:14;;;;;;;1.55;0.80;;;4.80;99.90;;;;;;5382235;26;20248;-79
2024/04/16 04:01:06;;;;;;;2.45;1.00;;;4.80;99.90;;;;;;5398945;26;20293;-79
2024/04/16 04:03:32;;;;;;;4.00;1.40;;;4.80;99.90;;;;;;5389723;26;20281;-79
2024/04/16 04:06:02;;;;;;;1.17;0.95;;;4.80;99.90;;;;;;5388844;26;20649;-79
2024/04/16 04:08:28;;;;;;;1.58;1.08;;;4.90;99.90;;;;;;5393759;26;20764;-79
2024/04/16 04:10:57;;;;;;;1.60;1.20;;;4.80;99.90;;;;;;5389898;26;20708;-80
2024/04/16 04:13:23;;;;;;;3.05;1.10;;;4.90;99.90;;;;;;5392532;26;20282;-80
2024/04/16 04:15:56;;;;;;;2.75;1.60;;;4.80;99.90;;;;;;5400703;26;20249;-80
2024/04/16 04:18:23;;;;;;;1.92;1.30;;;4.70;99.90;;;;;;5398273;26;20280;-79
2024/04/16 04:20:52;;;;;;;1.08;0.98;;;4.70;99.90;;;;;;5386967;26;20371;-79
2024/04/16 04:23:18;;;;;;;1.70;0.90;;;4.70;99.90;;;;;;5409034;26;20367;-79
2024/04/16 04:25:48;;;;;;;2.15;1.42;;;4.70;99.90;;;;;;5392570;26;20581;-79
2024/04/16 04:28:14;;;;;;;1.52;1.05;;;4.50;99.90;;;;;;5404993;26;20769;-79
2024/04/16 04:30:43;;;;;;;2.47;1.20;;;4.50;99.90;;;;;;5395071;26;20712;-79
2024/04/16 04:33:15;;;;;;;0.80;0.80;;;4.50;99.90;;;;;;5398731;26;20583;-81
2024/04/16 04:35:41;;;;;;;4.20;1.10;;;4.50;99.90;;;;;;5409837;26;20252;-74
2024/04/16 04:38:10;;;;;;;1.50;1.00;;;4.50;99.90;;;;;;5384879;26;20243;-78
2024/04/16 04:40:36;;;;;;;5.13;1.50;;;4.50;99.90;;;;;;5389251;26;20243;-77
2024/04/16 04:43:05;;;;;;;1.38;0.95;;;4.50;99.90;;;;;;5383929;26;20301;-77
2024/04/16 04:45:32;;;;;;;2.08;1.13;;;4.50;99.90;;;;;;5396092;26;20244;-79
2024/04/16 04:48:02;;;;;;;2.63;1.25;;;4.60;99.90;;;;;;5405266;26;20250;-78
2024/04/16 04:50:31;;;;;;;1.75;1.35;;;4.50;99.90;;;;;;5382527;26;20302;-78
2024/04/16 04:53:00;;;;;;;1.58;1.48;;;4.50;99.90;;;;;;5388954;26;20242;-77
2024/04/16 04:55:26;;;;;;;5.50;1.23;;;4.60;99.90;;;;;;5384028;26;20253;-78
2024/04/16 04:57:56;;;;;;;1.67;1.58;;;4.70;99.90;;;;;;5381550;26;20282;-79
2024/04/16 05:00:22;;;;;;;7.72;1.63;;;4.60;99.90;;;;;;5384457;26;20327;-83
2024/04/16 05:02:51;;;;;;;2.30;1.38;;;4.60;99.90;;;;;;5396741;26;20242;-75
2024/04/16 05:05:18;;;;;;;3.47;1.60;;;4.50;99.90;;;;;;5390722;26;20250;-79
2024/04/16 05:07:49;;;;;;;1.75;1.65;;;4.60;99.90;;;;;;5383603;26;20290;-74
2024/04/16 05:10:15;;;;;;;3.50;1.48;;;4.60;99.90;;;;;;5367393;26;20601;-78
2024/04/16 05:12:44;;;;;;;10.07;1.17;;;4.60;99.90;;;;;;5397734;26;20314;-77
2024/04/16 05:15:10;;;;;;;1.45;1.20;;;4.50;99.90;;;;;;5383740;26;20248;-78
2024/04/16 05:17:39;;;;;;;3.08;1.25;;;4.50;99.90;;;;;;5406593;26;20249;-78
2024/04/16 05:20:07;;;;;;;2.15;1.30;;;4.70;99.90;;;;;;5382933;26;20277;-78
2024/04/16 05:22:35;;;;;;;3.72;1.85;;;4.80;99.90;;;;;;5395028;26;20252;-77
2024/04/16 05:25:05;;;;;;;1.65;1.10;;;4.90;99.90;;;;;;5385150;26;20283;-79
2024/04/16 05:27:34;;;;;;;1.98;1.20;;;5.00;99.90;;;;;;5386306;26;20709;-80
2024/04/16 05:30:00;;;;;;;5.03;1.90;;;4.90;99.90;;;;;;5384797;26;20713;-75
2024/04/16 05:32:29;;;;;;;3.00;1.60;;;5.00;99.90;;;;;;5388487;26;20247;-75
2024/04/16 05:34:55;;;;;;;3.08;1.58;;;4.90;99.90;;;;;;5380651;26;20259;-75
2024/04/16 05:37:24;;;;;;;4.25;1.90;;;4.80;99.90;;;;;;5392146;26;20254;-75
2024/04/16 05:39:50;;;;;;;1.90;1.02;;;4.80;99.90;;;;;;5390877;26;20743;-75
2024/04/16 05:42:22;;;;;;;1.40;1.30;;;4.70;99.90;;;;;;5375962;26;20247;-75
2024/04/16 05:44:48;;;;;;;3.33;1.40;;;4.80;99.90;;;;;;5376076;26;20254;-75
2024/04/16 05:47:17;;;;;;;2.63;1.70;;;4.90;99.90;;;;;;5404967;26;20242;-75
2024/04/16 05:49:43;;;;;;;2.13;1.70;;;4.90;99.90;;;;;;5378776;26;20263;-75
2024/04/16 05:52:12;;;;;;;3.35;1.23;;;5.00;99.90;;;;;;5390005;26;20360;-75
2024/04/16 05:54:38;;;;;;;3.13;1.52;;;5.10;99.90;;;;;;5399057;26;20244;-75
2024/04/16 05:57:08;;;;;;;4.55;1.85;;;5.10;99.90;;;;;;5383327;26;20239;-75
2024/04/16 05:59:36;;;;;;;1.92;1.60;;;5.20;99.90;;;;;;5379279;26;20749;-75
2024/04/16 06:02:06;;;;;;;3.15;1.50;;;5.30;99.90;;;;;;5370412;26;20287;-75
2024/04/16 06:04:32;;;;;;;4.22;2.08;;;5.30;99.90;;;;;;5397728;26;20239;-75
2024/04/16 06:07:01;;;;;;;2.35;1.17;;;5.30;99.90;;;;;;5394191;26;20267;-75
2024/04/16 06:09:27;;;;;;;3.30;2.67;;;5.40;99.90;;;;;;5399523;26;20240;-75
2024/04/16 06:11:56;;;;;;;2.67;1.63;;;5.40;99.90;;;;;;5379957;26;20784;-75
2024/04/16 06:14:22;;;;;;;7.70;2.20;;;5.40;99.90;;;;;;5410516;26;20290;-75
2024/04/16 06:16:54;;;;;;;2.95;1.50;;;5.50;99.70;;;;;;5382291;26;20256;-75
2024/04/16 06:19:20;;;;;;;7.55;1.85;;;5.50;99.20;;;;;;5394319;26;20248;-75
2024/04/16 06:21:49;;;;;;;2.92;1.23;;;5.50;99.40;;;;;;5398574;26;20284;-75
2024/04/16 06:24:15;;;;;;;3.92;1.77;;;5.60;99.20;;;;;;5379529;26;20366;-75
2024/04/16 06:26:44;;;;;;;2.83;1.60;;;5.70;98.80;;;;;;5378953;26;20256;-75
2024/04/16 06:29:10;;;;;;;5.05;2.17;;;5.70;98.00;;;;;;5371318;26;20341;-75
2024/04/16 06:31:39;;;;;;;4.50;1.65;;;5.70;97.40;;;;;;5397844;26;20317;-75
2024/04/16 06:34:08;;;;;;;2.97;2.08;;;5.80;98.20;;;;;;5394961;26;20609;-75
2024/04/16 06:36:37;;;;;;;9.18;1.70;;;5.90;98.70;;;;;;5383167;26;20279;-75
2024/04/16 06:39:03;;;;;;;4.93;2.78;;;5.80;96.30;;;;;;5410536;26;20293;-75
2024/04/16 06:41:32;;;;;;;2.15;1.40;;;5.90;95.50;;;;;;5378532;26;20308;-74
2024/04/16 06:43:58;;;;;;;1.95;1.30;;;6.00;95.50;;;;;;5380336;26;20272;-75
2024/04/16 06:46:27;;;;;;;1.88;1.70;;;6.10;95.60;;;;;;5394837;26;20580;-75
2024/04/16 06:48:53;;;;;;;3.95;1.40;;;6.30;95.70;;;;;;5399119;26;20263;-75
2024/04/16 06:51:25;;;;;;;3.17;1.80;;;6.30;94.10;;;;;;5379544;26;20277;-75
2024/04/16 06:53:51;;;;;;;2.88;1.50;;;6.50;94.70;;;;;;5414848;26;20267;-75
2024/04/16 06:56:20;;;;;;;5.25;1.20;;;6.70;95.40;;;;;;5378332;26;20261;-74
2024/04/16 06:58:46;;;;;;;5.10;1.60;;;6.70;93.20;;;;;;5386484;26;20254;-75
2024/04/16 07:01:15;;;;;;;3.53;1.60;;;6.70;93.20;;;;;;5391729;26;20267;-76
2024/04/16 07:03:41;;;;;;;2.63;1.10;;;6.60;93.10;;;;;;5402865;26;20253;-76
2024/04/16 07:06:10;;;;;;;5.80;1.67;;;6.60;92.90;;;;;;5378647;26;20642;-75
2024/04/16 07:08:39;;;;;;;2.40;1.30;;;6.70;93.20;;;;;;5384119;26;20253;-75
2024/04/16 07:11:07;;;;;;;2.08;1.15;;;6.80;93.30;;;;;;5404189;26;20279;-75
2024/04/16 07:13:34;;;;;;;4.78;1.60;;;6.90;93.20;;;;;;5391083;26;20297;-75
2024/04/16 07:16:02;;;;;;;9.05;2.60;;;6.90;93.10;;;;;;5389276;26;20251;-75
2024/04/16 07:18:29;;;;;;;2.85;0.90;;;6.90;92.60;;;;;;5406983;26;20242;-75
2024/04/16 07:20:57;;;;;;;1.90;1.02;;;7.00;92.20;;;;;;5378419;26;20290;-75
2024/04/16 07:23:24;;;;;;;9.68;1.35;;;6.90;90.40;;;;;;5409145;26;20265;-75
2024/04/16 07:25:55;;;;;;;3.90;2.20;;;7.00;90.40;;;;;;5409735;26;20249;-76
2024/04/16 07:28:21;;;;;;;2.78;2.08;;;7.00;90.80;;;;;;5394366;26;20592;-76
2024/04/16 07:30:50;;;;;;;5.90;1.60;;;6.90;89.60;;;;;;5385388;26;20590;-75
2024/04/16 07:33:16;;;;;;;4.53;1.98;;;7.00;90.10;;;;;;5411266;26;20240;-76
2024/04/16 07:35:48;;;;;;;9.98;2.65;;;7.10;89.90;;;;;;5377822;26;20242;-76
2024/04/16 07:38:18;;;;;;;4.28;1.77;;;7.10;88.50;;;;;;5406066;26;20252;-75
2024/04/16 07:40:53;;;;;;;5.18;1.40;;;7.20;88.90;;;;;;5390270;26;20286;-76
2024/04/16 07:43:23;;;;;;;1.77;0.98;;;7.30;83.40;;;;;;5374275;26;20238;-76
2024/04/16 07:45:49;;;;;;;2.67;1.20;;;7.40;83.30;;;;;;5385865;26;20272;-76
2024/04/16 07:48:18;;;;;;;1.00;0.90;;;7.70;86.60;;;;;;5410671;26;20241;-76
2024/04/16 07:50:48;;;;;;;5.50;1.35;;;7.80;85.80;;;;;;5378596;26;20285;-75
2024/04/16 07:53:17;;;;;;;6.85;1.42;;;7.90;84.20;;;;;;5407642;26;20241;-75
2024/04/16 07:55:43;;;;;;;5.00;1.45;;;8.00;82.50;;;;;;5391786;26;20242;-76
2024/04/16 07:58:15;;;;;;;2.53;0.90;;;8.00;80.50;;;;;;5391306;26;20303;-75
2024/04/16 08:00:41;;;;;;;1.58;1.15;;;8.20;78.50;;;;;;5383640;26;20547;-75
2024/04/16 08:03:10;;;;;;;1.50;0.70;;;8.20;76.30;;;;;;5412145;26;20277;-75
2024/04/16 08:05:36;;;;;;;4.63;1.08;;;8.30;77.30;;;;;;5379183;26;20254;-76
2024/04/16 08:08:05;;;;;;;2.35;0.98;;;8.30;77.40;;;;;;5377298;26;20769;-76
2024/04/16 08:10:32;;;;;;;3.47;0.85;;;8.20;75.70;;;;;;5380823;26;20246;-75
2024/04/16 08:13:01;;;;;;;2.20;1.15;;;8.20;77.70;;;;;;5403368;26;20282;-75
2024/04/16 08:15:30;;;;;;;3.92;1.42;;;8.00;73.30;;;;;;5375711;26;20285;-75
2024/04/16 08:17:59;;;;;;;1.55;0.70;;;7.90;75.20;;;;;;5401881;26;20341;-75
2024/04/16 08:20:25;;;;;;;2.83;1.08;;;7.90;75.30;;;;;;5382544;26;20264;-75
2024/04/16 08:22:55;;;;;;;2.03;1.15;;;8.00;75.70;;;;;;5386147;26;20241;-75
2024/04/16 08:25:22;;;;;;;2.40;1.23;;;8.10;75.10;;;;;;5394918;26;20281;-76
2024/04/16 08:27:50;;;;;;;5.53;0.70;;;8.00;74.70;;;;;;5406515;26;20646;-75
2024/04/16 08:30:17;;;;;;;2.53;1.80;;;7.90;74.90;;;;;;5376848;26;20246;-75
2024/04/16 08:32:50;;;;;;;3.42;0.90;;;7.90;76.40;;;;;;5398217;26;20329;-75
2024/04/16 08:35:27;;;;;;;4.82;0.70;;;8.00;75.10;;;;;;5386228;26;20339;-76
2024/04/16 08:37:56;;;;;;;3.13;0.80;;;8.10;73.00;;;;;;5385304;26;20267;-75
2024/04/16 08:40:23;;;;;;;1.23;1.05;;;8.10;72.80;;;;;;5399158;26;20332;-75
2024/04/16 08:42:54;;;;;;;2.20;1.30;;;8.20;73.30;;;;;;5376775;26;20250;-76
2024/04/16 08:45:22;;;;;;;1.65;1.00;;;8.40;74.00;;;;;;5377513;26;20246;-75
2024/04/16 08:47:55;;;;;;;2.25;1.20;;;8.50;71.60;;;;;;5399053;26;20253;-76
2024/04/16 08:50:21;;;;;;;3.50;2.20;;;9.00;75.40;;;;;;5384824;26;20250;-76
2024/04/16 08:52:51;;;;;;;1.77;0.82;;;9.20;74.40;;;;;;5383872;26;20264;-75
2024/04/16 08:55:19;;;;;;;1.90;1.38;;;9.30;73.50;;;;;;5401810;26;20723;-75
2024/04/16 08:57:48;;;;;;;5.27;1.17;;;9.20;71.40;;;;;;5396271;26;20745;-76
2024/04/16 09:00:15;;;;;;;1.67;0.80;;;9.20;73.50;;;;;;5376791;26;20601;-75
2024/04/16 09:02:46;;;;;;;3.50;0.83;;;9.20;71.00;;;;;;5396389;26;20608;-75
2024/04/16 09:05:16;;;;;;;1.03;0.70;;;9.30;72.80;;;;;;5388754;26;20937;-76
2024/04/16 09:07:46;;;;;;;2.13;1.03;;;9.50;71.90;;;;;;5375874;26;20955;-76
2024/04/16 09:10:13;;;;;;;2.63;1.47;;;9.60;71.40;;;;;;5376867;26;20600;-76
2024/04/16 09:12:44;;;;;;;0.93;0.70;;;9.50;68.50;;;;;;5410905;26;20658;-75
2024/04/16 09:15:12;;;;;;;1.90;0.60;;;9.50;70.20;;;;;;5377190;26;20549;-75
2024/04/16 09:17:48;;;;;;;1.53;0.70;;;9.40;67.60;;;;;;5395939;26;20584;-75
2024/04/16 09:20:19;;;;;;;2.60;0.77;;;9.60;70.30;;;;;;5388727;26;20675;-75
2024/04/16 09:22:51;;;;;;;5.10;0.93;;;9.70;69.90;;;;;;5383673;26;20551;-76
2024/04/16 09:25:18;;;;;;;5.83;1.03;;;9.80;68.90;;;;;;5394338;26;20589;-75
2024/04/16 09:27:49;;;;;;;1.27;1.00;;;9.60;68.40;;;;;;5415836;26;20552;-75
2024/04/16 09:30:16;;;;;;;1.13;0.70;;;9.70;70.10;;;;;;5377771;26;20536;-76
2024/04/16 09:32:46;;;;;;;2.50;0.70;;;9.80;69.50;;;;;;5404392;26;21118;-75
2024/04/16 09:35:15;;;;;;;2.43;0.80;;;9.90;67.50;;;;;;5398414;26;20552;-76
2024/04/16 09:37:47;;;;;;;2.07;0.87;;;9.90;68.10;;;;;;5389606;26;20956;-76
2024/04/16 09:40:14;;;;;;;1.30;0.80;;;9.90;67.80;;;;;;5412698;26;21145;-75
2024/04/16 09:42:44;;;;;;;1.93;1.13;;;9.90;68.60;;;;;;5384028;26;20552;-76
2024/04/16 09:45:10;;;;;;;1.43;1.33;;;9.80;67.60;;;;;;5411401;26;20559;-75
2024/04/16 09:47:41;;;;;;;2.60;1.20;;;9.90;68.10;;;;;;5392557;26;20621;-75
2024/04/16 09:50:09;;;;;;;2.60;1.00;;;9.90;68.20;;;;;;5395655;26;20594;-76
2024/04/16 09:52:39;;;;;;;0.97;0.57;;;9.80;69.80;;;;;;5407838;26;20556;-76
2024/04/16 09:55:09;;;;;;;2.00;0.93;;;9.70;71.40;;;;;;5383923;26;20596;-75
2024/04/16 09:57:40;;;;;;;1.27;0.83;;;9.50;70.30;;;;;;5391826;26;20601;-76
2024/04/16 10:00:08;;;;;;;0.70;0.50;;;9.40;70.80;;;;;;5409742;26;21075;-75
2024/04/16 10:02:40;;;;;;;0.80;0.60;;;9.60;72.90;;;;;;5393295;26;20564;-75
2024/04/16 10:05:09;;;;;;;2.53;1.20;;;9.50;71.20;;;;;;5395590;26;20659;-75
2024/04/16 10:07:39;;;;;;;1.97;1.23;;;9.70;71.20;;;;;;5409888;26;20993;-75
2024/04/16 10:10:09;;;;;;;0.80;0.80;;;9.90;70.40;;;;;;5416717;26;20583;-75
2024/04/16 10:12:40;;;;;;;3.23;1.13;;;10.30;71.50;;;;;;5382913;26;20557;-76
2024/04/16 10:15:07;;;;;;;1.17;0.67;;;10.40;67.90;;;;;;5409544;26;20671;-75
2024/04/16 10:17:36;;;;;;;3.60;0.90;;;10.40;68.00;;;;;;5395386;26;21154;-75
2024/04/16 10:20:10;;;;;;;1.00;0.70;;;10.40;66.70;;;;;;5394206;26;20551;-75
2024/04/16 10:22:39;;;;;;;4.03;0.93;;;10.30;68.40;;;;;;5409747;26;21120;-76
2024/04/16 10:25:10;;;;;;;3.53;0.70;;;10.00;68.70;;;;;;5393910;26;20559;-76
2024/04/16 10:27:39;;;;;;;2.20;1.23;;;9.90;69.50;;;;;;5382747;26;20949;-75
2024/04/16 10:30:06;;;;;;;2.53;0.90;;;9.80;71.00;;;;;;5408659;26;20845;-76
2024/04/16 10:32:35;;;;;;;1.50;1.23;;;9.70;70.80;;;;;;5396440;26;20553;-76
2024/04/16 10:35:02;;;;;;;2.77;1.13;;;9.60;71.10;;;;;;5393821;26;20595;-76
2024/04/16 10:37:37;;;;;;;0.93;0.90;;;9.70;71.50;;;;;;5412270;26;20598;-75
2024/04/16 10:40:03;;;;;;;1.57;0.83;;;9.60;71.70;;;;;;5377605;26;21111;-76
2024/04/16 10:42:39;;;;;;;1.00;0.60;;;9.60;70.90;;;;;;5409073;26;20555;-75
2024/04/16 10:45:07;;;;;;;2.30;0.90;;;9.60;72.50;;;;;;5405480;26;20550;-76
2024/04/16 10:47:35;;;;;;;1.00;0.70;;;9.60;71.40;;;;;;5393080;26;20600;-75
2024/04/16 10:50:04;;;;;;;1.17;0.60;;;10.00;72.10;;;;;;5389008;26;20551;-76
2024/04/16 10:52:32;;;;;;;1.00;0.57;;;10.20;71.80;;;;;;5408497;26;20599;-75
2024/04/16 10:54:59;;;;;;;3.27;0.70;;;10.20;69.80;;;;;;5378870;26;20982;-76
2024/04/16 10:57:28;;;;;;;1.10;0.60;;;10.10;69.50;;;;;;5386896;26;20626;-76
2024/04/16 10:59:56;;;;;;;0.73;0.57;;;10.40;72.10;;;;;;5401732;26;20648;-76
2024/04/16 11:02:25;;;;;;;0.80;0.70;;;10.40;68.70;;;;;;5396335;26;20601;-76
2024/04/16 11:04:52;;;;;;;1.20;0.77;;;10.40;71.10;;;;;;5386446;26;21033;-76
2024/04/16 11:07:21;;;;;;;1.60;0.70;;;10.40;70.40;;;;;;5405077;26;20632;-76
2024/04/16 11:09:47;;;;;;;1.80;0.70;;;10.50;69.00;;;;;;5414148;26;20590;-75
2024/04/16 11:12:16;;;;;;;2.83;0.70;;;10.70;70.40;;;;;;5385987;26;20952;-76
2024/04/16 11:14:43;;;;;;;1.13;0.87;;;10.90;70.60;;;;;;5383711;26;20558;-76
2024/04/16 11:17:14;;;;;;;0.60;0.60;;;10.70;68.70;;;;;;5401431;26;20649;-76
2024/04/16 11:19:40;;;;;;;0.40;0.40;;;10.20;68.50;;;;;;5377589;26;20553;-75
2024/04/16 11:22:09;;;;;;;1.57;0.80;;;10.10;71.00;;;;;;5404922;26;20567;-75
2024/04/16 11:24:36;;;;;;;0.60;0.47;;;10.40;71.50;;;;;;5385670;26;20568;-75
2024/04/16 11:27:05;;;;;;;0.73;0.60;;;10.50;72.20;;;;;;5388786;26;20560;-76
2024/04/16 11:29:31;;;;;;;1.90;0.67;;;10.20;72.50;;;;;;5380498;26;20898;-75
2024/04/16 11:32:01;;;;;;;0.60;0.37;;;10.10;72.70;;;;;;5404879;26;20604;-75
2024/04/16 11:34:30;;;;;;;1.23;0.63;;;10.20;73.00;;;;;;5378518;26;20536;-75
2024/04/16 11:36:59;;;;;;;5.23;0.83;;;10.30;73.50;;;;;;5378236;26;20557;-75
2024/04/16 11:39:29;;;;;;;0.83;0.50;;;10.50;72.70;;;;;;5383973;26;20560;-75
2024/04/16 11:41:58;;;;;;;0.70;0.60;;;11.00;74.20;;;;;;5386219;26;20605;-75
2024/04/16 11:44:25;;;;;;;1.67;0.80;;;11.20;72.20;;;;;;5383580;26;20572;-75
2024/04/16 11:46:54;;;;;;;0.50;0.40;;;11.20;70.40;;;;;;5396340;26;20603;-77
2024/04/16 11:49:21;;;;;;;0.40;0.30;;;11.30;68.50;;;;;;5384615;26;20556;-78
2024/04/16 11:51:53;;;;;;;2.10;0.70;;;11.30;67.80;;;;;;5387316;26;20595;-78
2024/04/16 11:54:19;;;;;;;1.00;0.57;;;11.20;69.20;;;;;;5376795;26;20585;-76
2024/04/16 11:56:48;;;;;;;3.07;1.30;;;11.00;70.00;;;;;;5371055;26;20564;-76
2024/04/16 11:59:14;;;;;;;2.20;1.23;;;10.80;71.30;;;;;;5377357;26;20648;-76
2024/04/16 12:01:43;;;;;;;2.40;0.90;;;10.40;70.40;;;;;;5378607;26;20553;-77
2024/04/16 12:04:09;;;;;;;0.77;0.73;;;10.30;71.90;;;;;;5377750;26;20543;-76
2024/04/16 12:06:38;;;;;;;1.07;0.70;;;10.10;70.60;;;;;;5376151;26;20624;-77
2024/04/16 12:09:07;;;;;;;2.33;0.70;;;10.00;72.10;;;;;;5386689;26;20571;-77
2024/04/16 12:11:35;;;;;;;15.00;1.07;;;9.90;74.50;;;;;;5378493;26;20565;-77
2024/04/16 12:14:02;;;;;;;1.63;0.60;;;10.00;73.90;;;;;;5387395;26;20560;-77
2024/04/16 12:16:33;;;;;;;0.60;0.40;;;10.30;73.50;;;;;;5383260;26;20560;-77
2024/04/16 12:19:00;;;;;;;3.80;0.60;;;10.30;70.90;;;;;;5378461;26;20908;-77
2024/04/16 12:21:28;;;;;;;3.37;1.20;;;10.20;70.90;;;;;;5378945;26;20560;-77
2024/04/16 12:23:55;;;;;;;1.60;0.80;;;10.30;72.60;;;;;;5379810;26;20597;-77
2024/04/16 12:26:26;;;;;;;2.90;0.80;;;10.40;71.30;;;;;;5383729;26;20635;-78
2024/04/16 12:28:55;;;;;;;0.80;0.60;;;10.40;71.50;;;;;;5385083;26;20537;-77
2024/04/16 12:31:24;;;;;;;2.63;0.70;;;10.40;71.30;;;;;;5372033;26;20541;-78
2024/04/16 12:33:50;;;;;;;3.60;1.20;;;10.30;69.80;;;;;;5376878;26;20577;-77
2024/04/16 12:36:19;;;;;;;1.80;0.67;;;10.40;71.50;;;;;;5376463;26;20561;-77
2024/04/16 12:38:46;;;;;;;1.93;0.60;;;10.70;69.10;;;;;;5385984;26;20550;-75
2024/04/16 12:41:14;;;;;;;0.67;0.53;;;11.80;71.40;;;;;;5384742;26;20631;-75
2024/04/16 12:43:43;;;;;;;1.23;0.50;;;12.80;66.50;;;;;;5380620;26;20547;-76
2024/04/16 12:46:12;;;;;;;0.50;0.30;;;13.70;66.40;;;;;;5377095;26;20636;-76
2024/04/16 12:48:40;;;;;;;2.23;1.00;;;14.60;62.50;;;;;;5376176;26;21116;-77
2024/04/16 12:51:09;;;;;;;1.03;0.70;;;14.60;59.70;;;;;;5382625;26;20557;-77
2024/04/16 12:53:36;;;;;;;0.90;0.47;;;14.50;59.00;;;;;;5380618;26;20544;-77
2024/04/16 12:56:07;;;;;;;0.80;0.73;;;14.90;59.00;;;;;;5381695;26;20606;-77
2024/04/16 12:58:33;;;;;;;0.40;0.40;;;14.80;57.80;;;;;;5376058;26;20601;-76
2024/04/16 13:01:04;;;;;;;0.70;0.50;;;14.40;56.80;;;;;;5378051;26;20970;-77